createdAt,value
2023-10-22T00:02:26.152Z,92.88
2023-10-22T00:04:52.584Z,92.90
2023-10-22T00:07:19.247Z,93.44
2023-10-22T00:09:45.626Z,91.73
2023-10-22T00:12:12.664Z,91.95
2023-10-22T00:14:39.212Z,92.25
2023-10-22T00:17:05.909Z,92.74
2023-10-22T00:19:45.744Z,91.54
2023-10-22T00:22:13.283Z,92.93
2023-10-22T00:24:40.810Z,92.80
2023-10-22T00:27:07.311Z,91.39
2023-10-22T00:29:33.839Z,92.17
2023-10-22T00:32:00.406Z,91.28
2023-10-22T00:34:26.901Z,90.82
2023-10-22T00:36:53.725Z,91.90
2023-10-22T00:39:20.108Z,91.64
2023-10-22T00:41:46.625Z,90.60
2023-10-22T00:44:13.046Z,91.28
2023-10-22T00:46:39.771Z,91.54
2023-10-22T00:49:06.898Z,90.34
2023-10-22T00:51:34.387Z,90.63
2023-10-22T00:54:00.907Z,91.57
2023-10-22T00:56:27.837Z,91.08
2023-10-22T00:58:54.489Z,91.54
2023-10-22T01:01:21.788Z,91.55
2023-10-22T01:03:48.558Z,90.65
2023-10-22T01:06:15.418Z,90.91
2023-10-22T01:08:42.443Z,92.36
2023-10-22T01:11:10.853Z,91.21
2023-10-22T01:13:38.294Z,92.76
2023-10-22T01:16:06.013Z,91.62
2023-10-22T01:18:32.658Z,91.45
2023-10-22T01:20:59.114Z,92.45
2023-10-22T01:23:25.578Z,91.96
2023-10-22T01:25:52.284Z,93.15
2023-10-22T01:28:18.866Z,92.94
2023-10-22T01:30:45.749Z,92.17
2023-10-22T01:33:12.234Z,92.58
2023-10-22T01:35:38.798Z,92.85
2023-10-22T01:38:05.541Z,93.12
2023-10-22T01:40:31.948Z,92.95
2023-10-22T01:42:58.401Z,91.82
2023-10-22T01:45:25.155Z,92.42
2023-10-22T01:47:51.990Z,92.85
2023-10-22T01:50:18.543Z,91.78
2023-10-22T01:52:44.921Z,92.08
2023-10-22T01:55:12.896Z,92.64
2023-10-22T01:57:39.296Z,92.84
2023-10-22T02:00:06.519Z,93.17
2023-10-22T02:02:41.668Z,92.90
2023-10-22T02:05:08.401Z,92.40
2023-10-22T02:07:41.163Z,93.75
2023-10-22T02:10:09.644Z,93.30
2023-10-22T02:12:36.041Z,93.12
2023-10-22T02:15:02.550Z,93.97
2023-10-22T02:17:29.083Z,94.02
2023-10-22T02:19:55.491Z,92.84
2023-10-22T02:22:22.366Z,93.94
2023-10-22T02:24:48.809Z,92.86
2023-10-22T02:27:15.274Z,92.69
2023-10-22T02:29:41.906Z,93.46
2023-10-22T02:32:08.356Z,92.60
2023-10-22T02:34:36.520Z,92.08
2023-10-22T02:37:03.269Z,92.92
2023-10-22T02:39:30.669Z,92.61
2023-10-22T02:41:57.024Z,92.62
2023-10-22T02:44:23.960Z,91.93
2023-10-22T02:46:50.485Z,91.89
2023-10-22T02:49:16.961Z,91.24
2023-10-22T02:51:43.428Z,90.59
2023-10-22T02:54:10.207Z,91.81
2023-10-22T02:56:36.671Z,90.19
2023-10-22T02:59:03.127Z,90.76
2023-10-22T03:01:30.318Z,89.94
2023-10-22T03:03:57.027Z,89.53
2023-10-22T03:06:23.634Z,91.53
2023-10-22T03:08:50.201Z,91.09
2023-10-22T03:11:19.392Z,90.97
2023-10-22T03:13:52.544Z,90.32
2023-10-22T03:16:19.173Z,91.13
2023-10-22T03:18:47.192Z,90.79
2023-10-22T03:21:18.909Z,89.45
2023-10-22T03:23:46.453Z,89.72
2023-10-22T03:26:17.561Z,89.37
2023-10-22T03:28:45.039Z,89.59
2023-10-22T03:31:12.739Z,89.71
2023-10-22T03:33:39.244Z,90.17
2023-10-22T03:36:06.564Z,90.68
2023-10-22T03:38:33.170Z,90.98
2023-10-22T03:41:06.690Z,89.48
2023-10-22T03:43:33.906Z,89.44
2023-10-22T03:46:01.304Z,89.88
2023-10-22T03:48:28.959Z,90.67
2023-10-22T03:50:55.689Z,89.43
2023-10-22T03:53:22.871Z,89.76
2023-10-22T03:55:49.631Z,89.78
2023-10-22T03:58:16.120Z,90.34
2023-10-22T04:00:42.974Z,89.33
2023-10-22T04:03:09.738Z,89.10
2023-10-22T04:05:36.370Z,89.94
2023-10-22T04:08:02.824Z,89.45
2023-10-22T04:10:29.354Z,89.88
2023-10-22T04:12:56.150Z,90.17
2023-10-22T04:15:22.588Z,89.41
2023-10-22T04:17:49.293Z,91.10
2023-10-22T04:20:16.800Z,90.36
2023-10-22T04:22:44.117Z,89.95
2023-10-22T04:25:11.627Z,89.86
2023-10-22T04:27:38.351Z,89.74
2023-10-22T04:30:06.077Z,89.94
2023-10-22T04:32:36.022Z,89.77
2023-10-22T04:35:03.116Z,89.73
2023-10-22T04:37:29.594Z,89.35
2023-10-22T04:40:00.078Z,90.01
2023-10-22T04:42:29.038Z,89.35
2023-10-22T04:44:56.310Z,89.39
2023-10-22T04:47:23.109Z,88.60
2023-10-22T04:49:54.434Z,89.08
2023-10-22T04:52:35.516Z,90.45
2023-10-22T04:55:02.842Z,90.07
2023-10-22T04:57:29.373Z,90.63
2023-10-22T04:59:56.426Z,89.73
2023-10-22T05:02:23.037Z,90.27
2023-10-22T05:04:53.599Z,89.40
2023-10-22T05:07:20.117Z,90.07
2023-10-22T05:09:46.612Z,90.60
2023-10-22T05:12:13.272Z,90.86
2023-10-22T05:14:39.971Z,89.83
2023-10-22T05:17:06.914Z,89.17
2023-10-22T05:19:33.992Z,90.79
2023-10-22T05:22:00.566Z,90.49
2023-10-22T05:24:27.509Z,90.50
2023-10-22T05:26:54.400Z,90.66
2023-10-22T05:29:20.840Z,90.57
2023-10-22T05:31:47.309Z,91.04
2023-10-22T05:34:13.776Z,89.60
2023-10-22T05:36:40.207Z,90.74
2023-10-22T05:39:06.659Z,90.77
2023-10-22T05:41:33.045Z,90.15
2023-10-22T05:44:01.696Z,90.36
2023-10-22T05:46:29.245Z,90.39
2023-10-22T05:48:56.588Z,89.28
2023-10-22T05:51:23.404Z,90.29
2023-10-22T05:53:50.378Z,88.98
2023-10-22T05:56:17.251Z,90.44
2023-10-22T05:58:44.185Z,90.06
2023-10-22T06:01:11.571Z,88.77
2023-10-22T06:03:38.062Z,88.33
2023-10-22T06:06:04.878Z,88.47
2023-10-22T06:08:31.310Z,89.13
2023-10-22T06:10:57.794Z,89.95
2023-10-22T06:13:24.240Z,88.98
2023-10-22T06:15:56.787Z,89.83
2023-10-22T06:18:23.297Z,88.88
2023-10-22T06:20:49.925Z,90.17
2023-10-22T06:23:16.415Z,89.04
2023-10-22T06:25:44.260Z,90.22
2023-10-22T06:28:10.678Z,90.09
2023-10-22T06:30:37.071Z,89.82
2023-10-22T06:33:05.244Z,89.92
2023-10-22T06:35:32.065Z,89.38
2023-10-22T06:37:59.069Z,88.60
2023-10-22T06:40:26.006Z,89.62
2023-10-22T06:42:53.110Z,89.64
2023-10-22T06:45:20.683Z,88.77
2023-10-22T06:47:47.941Z,89.32
2023-10-22T06:50:15.068Z,88.30
2023-10-22T06:52:44.933Z,88.48
2023-10-22T06:55:12.067Z,87.66
2023-10-22T06:57:39.973Z,88.50
2023-10-22T07:00:09.304Z,89.16
2023-10-22T07:02:36.059Z,88.99
2023-10-22T07:05:02.793Z,88.67
2023-10-22T07:07:30.063Z,87.94
2023-10-22T07:09:57.038Z,88.26
2023-10-22T07:12:23.507Z,88.52
2023-10-22T07:14:50.006Z,87.19
2023-10-22T07:17:16.577Z,88.57
2023-10-22T07:19:43.202Z,87.38
2023-10-22T07:22:09.691Z,89.05
2023-10-22T07:24:36.357Z,87.28
2023-10-22T07:27:03.156Z,87.57
2023-10-22T07:29:29.571Z,87.45
2023-10-22T07:31:56.112Z,86.56
2023-10-22T07:34:22.566Z,85.97
2023-10-22T07:36:48.992Z,85.12
2023-10-22T07:39:15.495Z,84.19
2023-10-22T07:41:41.937Z,82.38
2023-10-22T07:44:08.485Z,82.67
2023-10-22T07:46:34.986Z,81.80
2023-10-22T07:49:01.398Z,81.10
2023-10-22T07:51:29.070Z,81.51
2023-10-22T07:53:55.584Z,81.74
2023-10-22T07:56:22.105Z,81.42
2023-10-22T07:58:48.613Z,80.92
2023-10-22T08:01:15.616Z,82.43
2023-10-22T08:03:42.273Z,82.37
2023-10-22T08:06:08.922Z,82.98
2023-10-22T08:08:35.714Z,82.81
2023-10-22T08:11:04.534Z,83.40
2023-10-22T08:13:31.084Z,82.70
2023-10-22T08:15:57.928Z,83.19
2023-10-22T08:18:25.354Z,83.97
2023-10-22T08:20:52.605Z,82.33
2023-10-22T08:23:19.046Z,84.07
2023-10-22T08:25:52.739Z,83.51
2023-10-22T08:28:19.509Z,84.06
2023-10-22T08:30:48.902Z,82.33
2023-10-22T08:33:15.522Z,81.58
2023-10-22T08:35:42.273Z,81.84
2023-10-22T08:38:08.941Z,82.19
2023-10-22T08:40:39.928Z,81.12
2023-10-22T08:43:07.773Z,81.65
2023-10-22T08:45:34.290Z,80.43
2023-10-22T08:48:05.309Z,79.17
2023-10-22T08:50:33.980Z,77.86
2023-10-22T08:53:00.487Z,77.68
2023-10-22T08:55:30.066Z,77.93
2023-10-22T08:57:58.238Z,77.96
2023-10-22T09:00:30.016Z,77.83
2023-10-22T09:02:58.146Z,78.90
2023-10-22T09:05:24.608Z,79.42
2023-10-22T09:07:55.478Z,79.33
2023-10-22T09:10:31.325Z,80.12
2023-10-22T09:13:17.264Z,79.42
2023-10-22T09:15:45.389Z,79.44
2023-10-22T09:18:12.549Z,80.75
2023-10-22T09:20:39.810Z,81.89
2023-10-22T09:23:20.235Z,81.19
2023-10-22T09:25:49.248Z,82.39
2023-10-22T09:28:26.496Z,81.96
2023-10-22T09:30:58.541Z,82.14
2023-10-22T09:33:33.325Z,82.54
2023-10-22T09:36:05.415Z,83.72
2023-10-22T09:38:47.114Z,83.76
2023-10-22T09:41:20.126Z,84.51
2023-10-22T09:43:46.566Z,84.56
2023-10-22T09:46:13.736Z,85.06
2023-10-22T09:48:41.614Z,85.84
2023-10-22T09:51:09.111Z,86.30
2023-10-22T09:53:42.036Z,86.28
2023-10-22T09:56:10.574Z,87.56
2023-10-22T09:58:46.237Z,89.82
2023-10-22T10:01:14.397Z,90.69
2023-10-22T10:03:43.762Z,91.41
2023-10-22T10:06:11.183Z,91.02
2023-10-22T10:08:41.405Z,91.76
2023-10-22T10:11:10.759Z,91.36
2023-10-22T10:13:37.233Z,91.37
2023-10-22T10:16:06.082Z,91.63
2023-10-22T10:19:10.098Z,90.80
2023-10-22T10:21:46.744Z,91.16
2023-10-22T10:24:23.820Z,90.85
2023-10-22T10:26:52.045Z,90.40
2023-10-22T10:29:24.382Z,89.98
2023-10-22T10:31:52.386Z,90.41
2023-10-22T10:34:43.429Z,90.12
2023-10-22T10:37:13.015Z,90.15
2023-10-22T10:39:44.593Z,90.72
2023-10-22T10:42:12.380Z,90.75
2023-10-22T10:45:00.516Z,91.97
2023-10-22T10:47:27.135Z,92.80
2023-10-22T10:50:18.532Z,92.94
2023-10-22T10:52:45.586Z,93.98
2023-10-22T10:55:21.390Z,94.72
2023-10-22T10:57:50.482Z,94.07
2023-10-22T11:00:33.443Z,94.52
2023-10-22T11:03:04.429Z,94.74
2023-10-22T11:05:33.761Z,94.07
2023-10-22T11:08:00.520Z,93.80
2023-10-22T11:10:29.095Z,93.10
2023-10-22T11:13:03.429Z,93.25
2023-10-22T11:15:38.382Z,91.87
2023-10-22T11:18:07.155Z,92.21
2023-10-22T11:20:34.506Z,92.29
2023-10-22T11:23:01.532Z,91.88
2023-10-22T11:25:28.844Z,91.88
2023-10-22T11:27:55.548Z,90.71
2023-10-22T11:30:39.238Z,89.80
2023-10-22T11:33:09.864Z,90.19
2023-10-22T11:35:38.602Z,89.13
2023-10-22T11:38:07.078Z,89.65
2023-10-22T11:40:37.844Z,88.78
2023-10-22T11:43:18.256Z,88.77
2023-10-22T11:45:53.117Z,88.60
2023-10-22T11:48:21.561Z,87.92
2023-10-22T11:50:55.926Z,87.55
2023-10-22T11:53:22.459Z,86.41
2023-10-22T11:55:50.279Z,85.37
2023-10-22T11:58:18.752Z,85.67
2023-10-22T12:00:46.734Z,84.54
2023-10-22T12:03:13.367Z,84.88
2023-10-22T12:05:39.924Z,84.66
2023-10-22T12:08:06.326Z,85.26
2023-10-22T12:10:32.960Z,84.75
2023-10-22T12:12:59.470Z,85.13
2023-10-22T12:15:26.914Z,83.88
2023-10-22T12:17:55.459Z,83.34
2023-10-22T12:20:22.918Z,81.17
2023-10-22T12:22:49.504Z,81.53
2023-10-22T12:25:16.031Z,81.74
2023-10-22T12:27:43.221Z,80.87
2023-10-22T12:30:10.252Z,80.51
2023-10-22T12:32:36.738Z,81.73
2023-10-22T12:35:04.191Z,81.38
2023-10-22T12:37:30.639Z,80.51
2023-10-22T12:39:57.021Z,79.67
2023-10-22T12:42:23.461Z,80.83
2023-10-22T12:44:49.948Z,77.39
2023-10-22T12:47:16.521Z,79.22
2023-10-22T12:49:43.668Z,78.78
2023-10-22T12:52:11.289Z,79.14
2023-10-22T12:54:42.426Z,79.97
2023-10-22T12:57:11.967Z,78.13
2023-10-22T12:59:39.030Z,76.14
2023-10-22T13:02:05.533Z,75.39
2023-10-22T13:04:32.121Z,70.51
2023-10-22T13:06:59.887Z,63.50
2023-10-22T13:09:26.586Z,64.55
2023-10-22T13:11:53.128Z,67.46
2023-10-22T13:14:20.723Z,66.98
2023-10-22T13:16:47.461Z,68.74
2023-10-22T13:19:13.881Z,68.55
2023-10-22T13:21:40.290Z,71.71
2023-10-22T13:24:07.206Z,72.48
2023-10-22T13:26:34.014Z,72.20
2023-10-22T13:29:07.350Z,73.62
2023-10-22T13:31:37.343Z,73.57
2023-10-22T13:34:05.330Z,74.63
2023-10-22T13:36:32.207Z,75.83
2023-10-22T13:38:58.762Z,75.19
2023-10-22T13:41:25.199Z,73.68
2023-10-22T13:43:51.727Z,74.13
2023-10-22T13:46:18.156Z,73.34
2023-10-22T13:48:44.687Z,74.55
2023-10-22T13:51:11.166Z,72.30
2023-10-22T13:53:37.565Z,73.35
2023-10-22T13:56:04.189Z,74.12
2023-10-22T13:58:30.749Z,75.30
2023-10-22T14:00:57.221Z,74.82
2023-10-22T14:03:23.845Z,72.38
2023-10-22T14:05:52.167Z,73.39
2023-10-22T14:08:21.432Z,73.92
2023-10-22T14:10:49.473Z,73.90
2023-10-22T14:13:17.659Z,73.53
2023-10-22T14:15:46.052Z,74.74
2023-10-22T14:18:12.889Z,74.04
2023-10-22T14:20:39.550Z,73.40
2023-10-22T14:23:05.983Z,75.46
2023-10-22T14:25:32.355Z,74.59
2023-10-22T14:27:58.821Z,73.71
2023-10-22T14:30:25.466Z,75.64
2023-10-22T14:32:51.917Z,76.02
2023-10-22T14:35:18.440Z,77.00
2023-10-22T14:37:44.817Z,75.81
2023-10-22T14:40:11.360Z,75.83
2023-10-22T14:42:37.841Z,77.38
2023-10-22T14:45:05.455Z,75.45
2023-10-22T14:47:31.893Z,75.86
2023-10-22T14:49:58.318Z,76.79
2023-10-22T14:52:24.802Z,76.66
2023-10-22T14:54:51.179Z,77.45
2023-10-22T14:57:17.752Z,77.77
2023-10-22T14:59:44.189Z,77.30
2023-10-22T15:02:11.116Z,77.64
2023-10-22T15:04:38.038Z,76.83
2023-10-22T15:07:04.969Z,77.69
2023-10-22T15:09:31.575Z,78.10
2023-10-22T15:11:58.083Z,76.43
2023-10-22T15:14:25.092Z,75.46
2023-10-22T15:16:51.532Z,76.38
2023-10-22T15:19:18.045Z,77.44
2023-10-22T15:21:44.735Z,78.44
2023-10-22T15:24:11.283Z,77.21
2023-10-22T15:26:37.749Z,78.03
2023-10-22T15:29:04.282Z,76.90
2023-10-22T15:31:30.860Z,77.90
2023-10-22T15:33:57.264Z,77.21
2023-10-22T15:36:23.826Z,77.28
2023-10-22T15:38:50.354Z,76.73
2023-10-22T15:41:17.730Z,76.55
2023-10-22T15:43:44.689Z,76.44
2023-10-22T15:46:22.291Z,76.20
2023-10-22T15:48:49.784Z,76.69
2023-10-22T15:51:21.409Z,75.45
2023-10-22T15:53:48.526Z,75.50
2023-10-22T15:56:16.133Z,76.93
2023-10-22T15:58:44.337Z,76.10
2023-10-22T16:01:15.754Z,75.83
2023-10-22T16:03:42.235Z,76.49
2023-10-22T16:06:11.449Z,76.76
2023-10-22T16:08:40.133Z,76.55
2023-10-22T16:11:06.538Z,77.28
2023-10-22T16:13:34.246Z,76.04
2023-10-22T16:16:00.743Z,76.58
2023-10-22T16:18:27.258Z,76.16
2023-10-22T16:20:53.802Z,77.33
2023-10-22T16:23:21.243Z,77.54
2023-10-22T16:25:47.992Z,77.25
2023-10-22T16:28:15.493Z,77.54
2023-10-22T16:30:46.000Z,77.59
2023-10-22T16:33:16.965Z,78.21
2023-10-22T16:35:43.660Z,78.85
2023-10-22T16:38:10.409Z,78.95
2023-10-22T16:40:40.145Z,78.81
2023-10-22T16:43:07.885Z,79.12
2023-10-22T16:45:35.338Z,79.17
2023-10-22T16:48:03.597Z,79.66
2023-10-22T16:50:31.011Z,79.69
2023-10-22T16:52:58.016Z,79.38
2023-10-22T16:55:24.519Z,80.58
2023-10-22T16:57:50.922Z,80.66
2023-10-22T17:00:17.569Z,80.54
2023-10-22T17:02:44.147Z,80.93
2023-10-22T17:05:10.650Z,81.30
2023-10-22T17:07:37.040Z,81.07
2023-10-22T17:10:03.711Z,80.65
2023-10-22T17:12:30.148Z,81.35
2023-10-22T17:14:56.618Z,81.52
2023-10-22T17:17:23.072Z,81.17
2023-10-22T17:19:49.869Z,80.84
2023-10-22T17:22:16.522Z,81.50
2023-10-22T17:24:42.913Z,81.06
2023-10-22T17:27:09.377Z,82.13
2023-10-22T17:29:35.894Z,82.63
2023-10-22T17:32:02.566Z,81.94
2023-10-22T17:34:29.022Z,82.31
2023-10-22T17:36:55.471Z,82.67
2023-10-22T17:39:21.946Z,82.96
2023-10-22T17:41:48.336Z,81.76
2023-10-22T17:44:14.719Z,82.08
2023-10-22T17:46:41.146Z,82.59
2023-10-22T17:49:07.970Z,81.95
2023-10-22T17:51:34.876Z,81.63
2023-10-22T17:54:01.360Z,81.90
2023-10-22T17:56:27.806Z,82.35
2023-10-22T17:58:54.217Z,82.31
2023-10-22T18:01:21.015Z,82.12
2023-10-22T18:03:49.861Z,81.56
2023-10-22T18:06:17.422Z,80.61
2023-10-22T18:08:45.026Z,82.45
2023-10-22T18:11:11.970Z,81.86
2023-10-22T18:13:38.358Z,80.39
2023-10-22T18:16:05.102Z,80.70
2023-10-22T18:18:31.520Z,80.38
2023-10-22T18:21:02.861Z,80.39
2023-10-22T18:23:29.610Z,80.87
2023-10-22T18:26:04.367Z,80.11
2023-10-22T18:28:34.151Z,80.52
2023-10-22T18:31:07.972Z,81.36
2023-10-22T18:33:35.073Z,81.67
2023-10-22T18:36:02.540Z,81.42
2023-10-22T18:38:39.613Z,82.28
2023-10-22T18:41:10.481Z,82.43
2023-10-22T18:43:38.714Z,83.66
2023-10-22T18:46:05.688Z,83.73
2023-10-22T18:48:32.475Z,83.51
2023-10-22T18:51:00.621Z,83.59
2023-10-22T18:53:27.562Z,84.67
2023-10-22T18:56:01.026Z,84.00
2023-10-22T18:58:27.467Z,84.37
2023-10-22T19:00:54.459Z,84.13
2023-10-22T19:03:21.306Z,84.53
2023-10-22T19:05:48.186Z,84.50
2023-10-22T19:08:14.653Z,84.26
2023-10-22T19:10:41.427Z,82.95
2023-10-22T19:13:08.974Z,83.46
2023-10-22T19:15:36.688Z,84.08
2023-10-22T19:18:04.342Z,84.39
2023-10-22T19:20:31.353Z,84.46
2023-10-22T19:22:58.511Z,85.46
2023-10-22T19:25:26.168Z,84.69
2023-10-22T19:27:52.601Z,86.00
2023-10-22T19:30:19.166Z,86.12
2023-10-22T19:32:46.027Z,84.90
2023-10-22T19:35:12.626Z,84.76
2023-10-22T19:37:39.087Z,85.22
2023-10-22T19:40:09.025Z,85.80
2023-10-22T19:42:35.608Z,85.02
2023-10-22T19:45:02.643Z,84.79
2023-10-22T19:47:29.316Z,85.56
2023-10-22T19:49:58.907Z,84.90
2023-10-22T19:52:39.619Z,84.92
2023-10-22T19:55:08.344Z,85.99
2023-10-22T19:57:35.018Z,84.60
2023-10-22T20:00:01.487Z,85.95
2023-10-22T20:02:28.011Z,85.20
2023-10-22T20:04:54.867Z,84.87
2023-10-22T20:07:21.417Z,85.76
2023-10-22T20:09:47.823Z,85.40
2023-10-22T20:12:14.384Z,85.46
2023-10-22T20:14:41.252Z,85.54
2023-10-22T20:17:07.961Z,86.03
2023-10-22T20:19:34.388Z,86.05
2023-10-22T20:22:01.126Z,86.03
2023-10-22T20:24:30.613Z,85.70
2023-10-22T20:26:57.947Z,85.58
2023-10-22T20:29:24.381Z,84.58
2023-10-22T20:31:50.804Z,84.99
2023-10-22T20:34:18.392Z,85.23
2023-10-22T20:36:46.040Z,85.27
2023-10-22T20:39:13.166Z,85.78
2023-10-22T20:41:39.768Z,85.48
2023-10-22T20:44:06.464Z,84.92
2023-10-22T20:46:34.093Z,84.61
2023-10-22T20:49:00.659Z,84.32
2023-10-22T20:51:27.078Z,85.58
2023-10-22T20:53:53.494Z,84.40
2023-10-22T20:56:21.002Z,84.60
2023-10-22T20:58:47.746Z,85.28
2023-10-22T21:01:18.509Z,84.79
2023-10-22T21:03:46.376Z,86.25
2023-10-22T21:06:16.163Z,84.99
2023-10-22T21:08:43.783Z,85.08
2023-10-22T21:11:11.297Z,84.92
2023-10-22T21:13:37.684Z,83.68
2023-10-22T21:16:04.408Z,83.79
2023-10-22T21:18:30.986Z,82.93
2023-10-22T21:20:58.783Z,84.95
2023-10-22T21:23:26.817Z,85.19
2023-10-22T21:25:53.444Z,84.98
2023-10-22T21:28:19.906Z,84.34
2023-10-22T21:30:46.749Z,83.38
2023-10-22T21:33:13.206Z,84.97
2023-10-22T21:35:39.743Z,83.16
2023-10-22T21:38:06.114Z,84.12
2023-10-22T21:40:33.478Z,84.03
2023-10-22T21:42:59.941Z,84.40
2023-10-22T21:45:26.444Z,83.95
2023-10-22T21:47:52.953Z,83.46
2023-10-22T21:50:19.474Z,84.23
2023-10-22T21:52:45.861Z,85.25
2023-10-22T21:55:19.228Z,85.58
2023-10-22T21:57:51.505Z,85.85
2023-10-22T22:00:19.355Z,84.62
2023-10-22T22:02:46.091Z,85.29
2023-10-22T22:05:12.635Z,85.34
2023-10-22T22:07:39.268Z,85.61
2023-10-22T22:10:06.217Z,87.54
2023-10-22T22:12:32.893Z,86.53
2023-10-22T22:14:59.328Z,86.11
2023-10-22T22:17:25.764Z,85.85
2023-10-22T22:19:52.528Z,86.73
2023-10-22T22:22:19.090Z,86.51
2023-10-22T22:24:45.604Z,87.80
2023-10-22T22:27:12.088Z,86.37
2023-10-22T22:29:38.535Z,88.42
2023-10-22T22:32:05.562Z,87.71
2023-10-22T22:34:31.914Z,87.96
2023-10-22T22:36:58.364Z,87.88
2023-10-22T22:39:24.810Z,86.90
2023-10-22T22:41:51.287Z,88.76
2023-10-22T22:44:17.712Z,86.84
2023-10-22T22:46:44.111Z,87.15
2023-10-22T22:49:10.798Z,88.30
2023-10-22T22:51:37.596Z,87.22
2023-10-22T22:54:04.019Z,87.37
2023-10-22T22:56:30.464Z,86.38
2023-10-22T22:58:56.873Z,86.42
2023-10-22T23:01:23.457Z,87.02
2023-10-22T23:03:50.054Z,87.86
2023-10-22T23:06:16.596Z,87.38
2023-10-22T23:08:43.030Z,88.17
2023-10-22T23:11:09.525Z,88.31
2023-10-22T23:13:35.952Z,87.94
2023-10-22T23:16:02.487Z,88.28
2023-10-22T23:18:29.111Z,88.20
2023-10-22T23:20:55.525Z,88.74
2023-10-22T23:23:22.153Z,88.08
2023-10-22T23:25:50.490Z,87.38
2023-10-22T23:28:20.400Z,88.57
2023-10-22T23:30:50.596Z,88.68
2023-10-22T23:33:17.543Z,88.29
2023-10-22T23:35:43.914Z,87.91
2023-10-22T23:38:10.295Z,88.83
2023-10-22T23:40:36.653Z,89.01
2023-10-22T23:43:03.165Z,89.19
2023-10-22T23:45:29.543Z,88.52
2023-10-22T23:47:55.996Z,89.81
2023-10-22T23:50:22.484Z,88.57
2023-10-22T23:52:48.896Z,88.86
2023-10-22T23:55:15.439Z,89.18
2023-10-22T23:57:42.230Z,89.58
